SLR weather

Public forecast

Using degrees Fahrenheit for public forecast. Weather courtesy of forecast.io.

Current aviation weather report (METAR) for Sulphur Springs Municipal Airport

Retrieved 2020/08/15 13:15 UTC (1 minute ago):

KSLR 151315Z AUTO 17005KT 10SM CLR 27/24 A2996 RMK AO2 T02700235

Closest aviation forecast (TAF) to Sulphur Springs Municipal Airport

Closest forecast is Tyler Pounds Regional Airport, 49.6 nm (91.9 km) SSE. Retrieved 2020/08/15 12:24 UTC (52 minutes ago):

TAF KTYR 151121Z 1512/1612 18005KT P6SM SCT080 SCT250 FM151500 VRB06KT P6SM SCT080 SCT150 SCT250 FM160000 VRB05KT P6SM FEW060 SCT150 SCT250